Date,TemperatureHighF,TemperatureAvgF,TemperatureLowF,DewpointHighF,DewpointAvgF,DewpointLowF,HumidityHigh,HumidityAvg,HumidityLow,PressureMaxIn,PressureMinIn,WindSpeedMaxMPH,WindSpeedAvgMPH,GustSpeedMaxMPH,PrecipitationSumIn
2014-1-1,50.5,41.6,33.8,35.8,28.7,24.3,80,62,38,30.49,30.21,10,1,10,0.00
2014-1-2,47.6,44.6,40.5,46.5,40.6,32.0,96,86,64,30.22,29.63,14,2,14,0.27
2014-1-3,43.7,30.5,24.1,40.4,14.5,8.6,88,52,36,30.54,29.70,20,6,21,0.00
2014-1-4,37.6,27.8,20.6,26.1,14.2,7.0,73,57,36,30.59,30.34,10,2,10,0.00
2014-1-5,62.0,49.6,37.2,58.6,43.9,25.9,96,81,62,30.35,29.82,14,3,14,0.00
2014-1-6,61.3,45.3,17.8,58.8,35.4,-6.4,96,70,32,30.24,29.68,24,7,24,0.06
2014-1-7,26.5,15.6,9.7,6.0,-3.9,-7.3,54,41,29,30.59,30.23,17,4,18,0.00
2014-1-8,44.4,28.9,15.5,13.7,10.4,5.6,78,48,26,30.69,30.57,9,1,9,0.00
2014-1-9,53.9,39.9,26.3,29.9,19.8,9.7,77,47,19,30.64,30.52,9,2,9,0.00
2014-1-10,60.4,47.1,40.6,59.5,43.2,30.1,98,87,58,30.53,30.13,10,3,10,1.11
2014-1-11,68.4,61.8,52.5,65.6,60.7,51.7,98,96,90,30.13,29.65,42,5,42,0.26
2014-1-12,58.1,48.6,43.3,53.2,39.7,32.3,94,73,39,30.23,29.70,30,4,30,0.06
2014-1-13,60.8,49.1,36.3,44.6,38.0,33.1,89,67,45,30.24,30.02,16,3,16,0.00
2014-1-14,54.6,49.3,42.7,50.9,47.2,41.6,97,93,75,30.02,29.82,11,1,11,0.27
2014-1-15,60.2,46.2,37.8,48.2,39.8,33.1,98,81,45,30.03,29.88,14,3,14,0.02
2014-1-16,45.6,37.1,32.3,34.1,31.5,23.1,94,81,44,30.09,29.96,12,4,13,0.01
2014-1-17,54.6,39.7,29.5,38.9,28.8,23.9,81,66,45,30.09,29.91,17,3,17,0.00
2014-1-18,48.2,35.0,29.4,33.7,18.6,9.2,70,52,35,30.10,29.89,19,4,19,0.00
2014-1-19,53.2,40.8,30.8,29.1,23.9,18.2,63,52,36,30.10,29.96,18,4,24,0.00
2014-1-20,64.3,48.3,35.3,31.8,29.5,27.0,74,51,25,29.98,29.83,15,3,15,0.00
2014-1-21,52.6,42.6,27.1,36.4,31.8,22.9,93,66,49,29.89,29.56,21,3,21,0.01
2014-1-22,31.4,26.1,20.0,24.0,13.1,5.2,88,60,34,30.17,29.87,13,4,14,0.00
2014-1-23,39.1,27.0,18.3,17.1,12.6,5.0,84,58,32,30.49,30.16,17,2,17,0.00
2014-1-24,28.1,18.3,12.5,5.5,-0.5,-3.7,51,44,26,30.69,30.35,17,4,17,0.00
2014-1-25,42.3,29.8,16.9,20.3,10.4,1.3,57,44,35,30.35,29.72,26,7,26,0.00
2014-1-26,51.9,40.6,26.7,29.0,21.5,16.6,71,48,26,30.05,29.87,16,4,16,0.00
2014-1-27,64.5,50.7,35.7,38.3,32.7,8.6,63,51,33,30.13,29.82,17,5,17,0.00
2014-1-28,35.5,26.9,17.8,18.5,6.9,-0.3,90,47,24,30.36,30.13,17,7,17,0.00
2014-1-29,27.4,21.4,15.8,15.4,10.9,1.5,90,66,35,30.45,30.22,14,3,14,0.00
2014-1-30,38.1,23.2,9.3,14.2,8.1,3.5,85,56,29,30.51,30.30,14,2,14,0.02
2014-1-31,51.6,40.5,33.1,21.7,18.6,16.7,58,42,26,30.27,30.22,4,0,4,0.02
2014-2-1,56.2,41.5,29.3,41.5,27.9,17.3,96,62,27,30.32,30.16,11,1,11,0.05
2014-2-2,63.7,51.3,42.5,52.3,47.0,41.4,97,86,61,30.17,30.07,12,3,12,0.00
2014-2-3,68.9,51.6,40.4,64.1,48.8,36.2,97,90,76,30.31,29.94,19,6,19,0.20
2014-2-4,40.4,38.7,37.7,37.7,36.2,34.7,97,91,85,30.45,30.14,23,6,23,0.39
2014-2-5,51.3,43.9,38.5,49.5,42.5,32.4,98,95,66,30.15,29.85,19,3,19,0.04
2014-2-6,42.7,37.5,33.1,32.5,27.2,24.0,72,66,52,30.38,30.12,14,5,14,0.00
2014-2-7,50.9,40.0,30.1,32.5,30.2,27.1,91,69,48,30.42,30.31,6,1,10,0.00
2014-2-8,49.7,41.2,36.2,32.4,30.8,27.8,85,68,46,30.34,30.17,11,2,11,0.00
2014-2-9,47.5,35.7,30.9,36.4,31.2,28.3,93,85,64,30.24,30.02,9,2,9,0.00
2014-2-10,47.5,47.5,47.5,35.9,35.9,35.9,64,64,64,30.28,30.06,6,6,6,0.00
2014-2-11,47.5,44.8,29.9,35.9,33.1,17.0,64,63,58,30.46,30.26,17,6,17,0.00
2014-2-12,32.0,27.1,23.3,30.7,18.2,13.6,95,70,58,30.48,29.83,25,7,25,0.00
2014-2-13,37.5,32.3,30.9,34.6,31.1,29.9,97,95,81,29.83,29.50,17,4,17,0.05
2014-2-14,58.6,42.7,31.2,37.3,32.3,28.3,89,69,35,29.88,29.72,15,4,15,0.23
2014-2-15,47.4,40.5,33.0,40.1,31.0,17.4,96,71,38,30.11,29.59,18,4,21,0.38
2014-2-16,52.8,39.7,31.2,33.4,24.5,17.6,66,55,38,30.22,30.07,14,2,14,0.00
2014-2-17,45.4,38.3,31.4,29.8,25.4,21.7,75,60,44,30.45,30.22,23,5,23,0.00
2014-2-18,65.0,48.5,32.7,40.5,30.8,23.7,91,56,22,30.28,30.14,10,2,10,0.00
2014-2-19,73.0,59.7,48.7,60.5,53.2,36.8,97,80,60,30.14,29.94,20,4,20,0.48
2014-2-20,74.6,63.1,54.7,61.8,52.1,43.3,92,68,53,30.25,30.03,16,5,19,0.00
2014-2-21,70.8,61.6,47.7,64.4,57.3,42.0,94,86,74,30.07,29.81,39,5,39,0.42
2014-2-22,54.7,45.8,42.1,42.0,32.2,29.4,81,59,39,30.25,30.06,8,2,8,0.00
2014-2-23,67.1,55.6,44.3,44.5,37.4,30.7,71,51,35,30.15,29.92,10,3,16,0.00
2014-2-24,60.8,53.2,44.4,46.2,32.3,17.6,80,48,23,30.18,29.91,11,4,15,0.00
2014-2-25,57.1,45.5,36.2,31.4,21.7,16.4,57,39,31,30.18,29.98,10,3,12,0.00
2014-2-26,47.8,39.8,34.4,31.2,26.6,21.4,76,60,42,30.02,29.84,14,3,14,0.00
2014-2-27,55.3,35.3,25.5,24.9,17.9,8.9,74,52,18,30.06,29.81,16,3,20,0.00
2014-2-28,45.1,36.4,28.3,20.0,15.5,10.1,58,43,29,30.38,30.06,21,7,24,0.00
2014-3-1,57.7,39.0,30.8,38.1,24.7,16.1,77,57,47,30.43,30.27,10,3,11,0.00
2014-3-2,70.1,55.0,38.4,48.5,42.5,35.1,90,65,42,30.29,29.95,15,3,15,0.00
2014-3-3,60.0,41.0,22.3,48.7,35.8,16.4,93,83,65,30.34,29.87,28,7,28,0.19
2014-3-4,39.2,28.4,17.7,18.2,13.6,8.7,76,55,36,30.42,30.27,28,6,28,0.00
2014-3-5,44.7,34.7,31.9,23.8,18.7,14.5,61,52,33,30.34,30.19,11,2,11,0.00
2014-3-6,42.0,35.7,31.7,32.5,25.6,16.2,95,68,48,30.42,30.11,24,10,25,0.55
2014-3-7,37.2,35.3,33.3,36.4,34.2,32.0,97,96,90,30.12,29.92,29,10,29,0.93
2014-3-8,67.8,49.9,31.4,47.1,39.6,30.0,96,71,40,30.14,30.01,13,3,13,0.00
2014-3-9,67.2,56.9,47.1,45.5,40.4,35.2,83,56,32,30.12,30.01,10,2,12,0.00
2014-3-10,73.3,56.8,37.8,42.7,34.7,27.4,89,49,21,30.05,29.84,17,2,17,0.00
2014-3-11,79.0,64.9,50.6,44.8,41.7,35.4,70,45,24,29.85,29.70,9,3,9,0.00
2014-3-12,69.0,60.8,45.0,59.4,51.1,30.8,92,71,52,29.72,29.26,20,6,26,0.10
2014-3-13,45.8,39.9,31.5,31.5,19.1,7.6,68,44,21,30.30,29.65,16,5,23,0.00
2014-3-14,60.4,44.7,29.0,37.2,21.0,14.8,77,43,18,30.40,30.16,23,4,23,0.00
2014-3-15,71.8,59.9,50.1,41.7,38.1,34.3,69,47,26,30.16,29.98,23,5,23,0.00
2014-3-16,57.9,50.5,38.4,44.5,38.1,31.7,94,65,40,30.08,29.86,27,6,27,0.06
2014-3-17,37.8,33.6,31.7,36.2,31.7,29.9,94,93,90,30.04,29.87,18,8,21,0.17
2014-3-18,37.7,34.4,30.9,36.3,33.0,29.6,96,95,92,30.24,29.99,13,6,14,0.09
2014-3-19,47.7,41.4,35.7,45.9,39.9,34.7,96,94,91,30.24,30.04,11,3,11,0.12
2014-3-20,66.9,53.8,42.6,46.5,37.3,27.2,97,61,23,30.08,29.98,17,3,17,0.00
2014-3-21,69.2,55.6,37.3,37.2,29.7,23.7,71,39,24,30.20,30.08,13,2,13,0.00
2014-3-22,74.5,61.4,46.9,46.7,41.8,36.0,83,52,27,30.12,29.97,15,4,18,0.00
2014-3-23,60.6,51.5,39.1,45.8,41.2,36.2,94,69,47,30.19,29.95,16,5,25,0.09
2014-3-24,51.2,41.0,33.7,37.6,27.6,21.3,95,62,31,30.34,30.17,16,3,16,0.00
2014-3-25,44.7,39.5,34.7,38.3,32.7,26.8,91,77,60,30.17,29.81,12,3,12,0.04
2014-3-26,47.4,37.7,30.5,30.6,19.0,13.1,86,49,26,30.39,30.00,21,4,21,0.00
2014-3-27,59.7,44.6,29.5,38.7,22.3,15.9,77,44,20,30.54,30.34,12,3,12,0.00
2014-3-28,69.6,56.3,43.6,59.6,50.1,37.5,96,80,61,30.35,30.15,24,4,24,0.17
2014-3-29,68.1,61.7,57.5,65.2,60.5,56.7,98,96,90,30.16,29.60,13,2,13,1.39
2014-3-30,62.7,48.7,42.5,61.2,40.8,31.9,95,75,48,30.00,29.59,23,6,23,0.02
2014-3-31,72.7,55.8,41.0,35.5,28.5,22.2,66,39,17,30.15,29.99,14,4,14,0.00
2014-4-1,81.3,64.9,46.0,40.7,33.7,27.4,65,34,17,30.19,30.03,14,2,14,0.00
2014-4-2,87.0,71.8,54.4,44.4,40.6,29.2,62,35,13,30.12,30.00,14,3,14,0.00
2014-4-3,80.1,67.2,56.1,54.5,48.3,43.1,71,51,37,30.11,29.92,11,2,11,0.00
2014-4-4,83.7,70.0,59.3,58.5,54.1,47.5,83,60,30,29.93,29.76,18,4,25,0.00
2014-4-5,73.2,66.2,57.6,58.8,45.2,33.4,76,48,28,30.09,29.81,24,4,24,0.00
2014-4-6,59.4,52.4,47.0,40.5,35.2,28.1,65,52,40,30.25,30.09,22,8,25,0.00
2014-4-7,62.6,52.5,44.9,60.8,48.1,32.5,96,86,46,30.14,29.71,16,4,16,0.60
2014-4-8,68.5,63.3,57.2,62.4,55.2,42.1,96,77,48,29.72,29.62,16,4,16,0.00
2014-4-9,68.7,57.6,48.9,48.4,43.0,35.7,91,61,30,30.14,29.70,18,3,33,0.05
2014-4-10,75.2,55.3,44.7,47.3,40.7,37.0,86,61,29,30.32,30.14,18,1,18,0.00
2014-4-11,78.4,66.9,54.9,51.6,46.9,43.6,67,50,31,30.26,30.08,19,5,19,0.00
2014-4-12,82.3,69.4,56.6,54.5,51.3,46.8,78,55,32,30.25,30.13,14,3,14,0.00
2014-4-13,81.3,69.2,55.9,63.0,56.9,53.3,94,67,43,30.26,30.11,15,3,15,0.00
2014-4-14,76.5,66.9,60.6,64.3,60.4,56.2,94,81,55,30.15,29.88,18,4,18,0.17
2014-4-15,70.3,61.5,41.4,67.3,59.1,34.4,97,92,75,30.04,29.63,16,5,20,1.60
2014-4-16,54.1,43.5,34.2,34.7,27.9,22.3,77,56,35,30.51,30.03,21,6,21,0.00
2014-4-17,62.7,49.1,36.0,44.3,36.0,30.2,82,62,39,30.61,30.46,21,6,21,0.00
2014-4-18,62.4,50.9,40.0,49.8,41.7,37.1,92,72,51,30.50,30.27,14,5,14,0.15
2014-4-19,52.7,49.4,45.5,48.8,46.6,44.2,97,90,73,30.27,30.17,20,8,20,0.49
2014-4-20,66.7,57.7,50.1,50.2,42.3,33.0,84,57,47,30.29,30.21,21,9,26,0.01
2014-4-21,75.5,58.8,44.0,47.8,38.0,30.8,76,50,21,30.24,29.96,16,3,16,0.00
2014-4-22,81.7,66.5,52.9,58.1,49.1,38.9,80,55,32,29.97,29.69,9,2,9,0.00
2014-4-23,72.6,63.6,55.2,57.5,42.3,30.2,91,52,22,30.00,29.72,12,3,12,0.00
2014-4-24,72.9,59.3,46.9,43.5,37.7,34.9,72,46,28,30.20,30.00,13,2,13,0.00
2014-4-25,80.9,63.8,49.9,65.9,56.6,42.8,91,78,54,30.05,29.67,15,3,15,0.59
2014-4-26,80.3,66.9,54.0,57.6,49.8,43.3,91,59,27,30.04,29.87,12,3,12,0.00
2014-4-27,86.1,70.9,58.5,59.4,52.0,46.5,76,53,32,30.04,29.93,14,2,14,0.00
2014-4-28,70.9,61.9,55.3,62.2,55.8,49.0,90,81,72,30.03,29.92,16,5,16,0.00
2014-4-29,71.6,60.9,53.2,67.1,58.5,52.1,97,92,80,30.06,29.95,16,4,16,0.00
2014-4-30,76.9,72.0,68.4,72.3,69.3,66.8,97,91,83,30.06,29.91,15,4,15,0.00
2014-5-1,77.9,70.6,64.5,68.4,64.5,60.2,95,82,57,29.95,29.81,14,4,14,0.00
2014-5-2,68.6,61.3,54.3,61.1,49.5,41.2,94,68,42,30.00,29.87,9,2,9,0.00
2014-5-3,75.6,65.2,54.6,55.6,49.9,45.3,89,61,35,29.95,29.88,12,3,12,0.00
2014-5-4,83.4,70.6,54.7,54.2,49.7,45.4,79,50,32,30.04,29.84,14,4,22,1.68
2014-5-5,78.8,68.0,59.5,58.4,53.7,46.9,85,61,46,30.05,29.87,17,4,17,0.00
2014-5-6,87.3,71.8,58.6,63.5,59.8,54.8,94,69,35,30.01,29.87,13,2,13,0.00
2014-5-7,82.3,66.3,60.1,68.8,61.9,58.0,95,86,62,30.17,30.01,13,4,14,0.00
2014-5-8,89.0,76.7,63.2,65.3,60.5,55.1,97,63,33,30.22,30.09,17,3,17,0.00
2014-5-9,89.2,77.2,68.1,67.0,62.6,58.1,79,62,38,30.19,30.04,16,3,16,0.00
2014-5-10,86.9,74.6,67.4,70.1,63.4,56.8,84,70,39,30.15,30.01,17,3,17,0.00
2014-5-11,87.2,73.9,63.8,67.2,62.4,57.7,92,70,40,30.18,30.07,9,1,9,0.00
2014-5-12,91.2,78.2,64.2,70.2,65.6,60.0,95,69,38,30.22,30.11,8,1,14,0.00
2014-5-13,92.4,79.2,67.7,71.2,67.8,64.1,96,71,40,30.18,30.09,12,2,12,0.00
2014-5-14,88.6,77.7,67.6,70.6,66.3,62.5,93,70,44,30.20,30.07,10,2,10,0.00
2014-5-15,77.5,70.2,66.8,70.8,67.3,63.7,98,91,79,30.15,29.87,16,3,16,0.00
2014-5-16,71.6,65.0,54.2,68.2,52.5,46.6,98,66,43,30.07,29.84,15,4,17,0.00
2014-5-17,71.0,60.7,49.3,53.9,45.6,38.8,79,60,38,30.21,30.07,16,3,16,0.00
2014-5-18,68.7,61.7,55.7,54.1,47.6,44.8,80,61,46,30.26,30.20,10,2,10,0.00
2014-5-19,72.5,60.8,47.3,52.5,46.8,42.5,96,65,36,30.35,30.24,9,2,13,0.00
2014-5-20,78.3,66.2,51.8,58.3,53.2,47.1,88,64,46,30.33,30.13,16,3,16,0.00
2014-5-21,86.1,74.5,64.7,65.8,61.0,56.4,80,64,45,30.14,29.95,13,4,20,0.00
2014-5-22,86.4,77.8,68.6,67.4,65.2,63.9,86,66,48,29.98,29.86,12,4,18,0.00
2014-5-23,84.5,73.2,67.2,66.5,64.6,57.8,89,76,43,30.05,29.93,12,1,12,0.00
2014-5-24,66.2,65.9,65.7,54.3,54.1,53.8,66,66,65,30.15,30.15,3,2,3,0.00
2014-5-25,81.6,70.3,56.8,61.3,56.4,53.0,90,64,39,30.23,30.14,7,1,9,0.00
2014-5-26,86.6,73.4,61.5,66.6,62.8,59.0,92,72,45,30.25,30.08,10,3,16,0.00
2014-5-27,87.4,76.0,68.4,70.8,67.4,64.4,94,76,51,30.14,29.98,16,3,16,0.00
2014-5-28,90.4,78.9,67.5,71.1,67.7,63.0,93,71,43,30.03,29.95,9,2,11,0.00
2014-5-29,76.3,71.3,67.2,69.3,65.5,63.1,88,82,75,30.12,30.00,17,2,17,0.00
2014-5-30,77.1,69.5,65.1,68.6,65.6,63.3,95,88,73,30.17,30.07,0,0,0,0.00
2014-5-31,82.1,71.7,64.7,64.7,60.5,55.2,96,71,44,30.25,30.14,11,1,11,0.00
2014-6-1,74.1,64.0,56.5,58.2,53.5,48.5,88,71,42,30.37,30.25,16,4,16,0.00
2014-6-2,83.0,76.5,67.7,57.4,55.2,53.2,68,49,37,30.25,30.15,6,1,8,0.00
2014-6-3,85.6,73.3,59.9,69.6,61.8,54.6,90,69,47,30.17,29.96,12,2,15,0.00
2014-6-4,90.2,74.3,68.2,70.5,67.7,65.5,92,81,48,29.96,29.80,13,2,13,0.00
2014-6-5,90.2,81.5,74.3,75.4,70.5,67.2,85,70,50,29.86,29.71,14,4,17,0.00
2014-6-6,74.9,72.1,70.6,69.2,68.5,68.0,94,89,80,29.86,29.84,5,2,5,0.00
2014-6-7,84.7,75.0,64.4,68.0,63.7,58.8,94,70,46,30.06,29.97,9,2,14,0.00
2014-6-8,85.1,75.2,64.2,68.0,64.5,61.7,93,71,52,30.02,29.91,8,2,14,0.00
2014-6-9,89.4,78.1,69.5,73.0,69.2,64.2,93,75,55,29.97,29.86,15,1,15,0.00
2014-6-10,94.3,80.7,69.4,74.3,70.2,66.6,97,74,44,29.97,29.90,9,2,9,0.00
2014-6-11,91.7,79.5,70.2,73.8,70.8,66.6,96,77,51,29.99,29.84,23,2,23,0.00